« Back
NWS Peachtree City, Ga » Text Product » ATL Terminal Aerodrome Forecast


Printer-friendly Version
Current Version              Previous Versions:   1  2  3  4  5  6  7  8  9  

Terminal Aerodrome Forecast

756
FTUS42 KFFC 240330 AAB
TAFATL
TAF AMD
KATL 240330Z 2404/2506 28003KT P6SM SKC
     FM240900 04003KT P6SM SKC
     FM241500 27005KT P6SM FEW050
     FM241800 27008KT P6SM SCT070
     FM250200 22003KT P6SM FEW150=



USA.gov is the U.S. government's official web portal to all federal, state and local government web resources and services.